sensor_id;sensor_type;location;lat;lon;timestamp;P1;durP1;ratioP1;P2;durP2;ratioP2
1358;SDS011;673;48.098;14.422;2023-11-21T00:01:21;4.43;;;1.30;;
1358;SDS011;673;48.098;14.422;2023-11-21T00:03:49;3.67;;;1.60;;
1358;SDS011;673;48.098;14.422;2023-11-21T00:06:19;3.67;;;1.47;;
1358;SDS011;673;48.098;14.422;2023-11-21T00:08:46;3.43;;;1.43;;
1358;SDS011;673;48.098;14.422;2023-11-21T00:11:13;1.20;;;1.10;;
1358;SDS011;673;48.098;14.422;2023-11-21T00:13:40;2.70;;;1.30;;
1358;SDS011;673;48.098;14.422;2023-11-21T00:16:07;1.33;;;1.20;;
1358;SDS011;673;48.098;14.422;2023-11-21T00:18:34;2.70;;;1.97;;
1358;SDS011;673;48.098;14.422;2023-11-21T00:21:03;3.40;;;1.50;;
1358;SDS011;673;48.098;14.422;2023-11-21T00:23:30;3.03;;;1.13;;
1358;SDS011;673;48.098;14.422;2023-11-21T00:25:57;4.77;;;1.87;;
1358;SDS011;673;48.098;14.422;2023-11-21T00:28:24;1.20;;;1.10;;
1358;SDS011;673;48.098;14.422;2023-11-21T00:30:52;7.97;;;3.10;;
1358;SDS011;673;48.098;14.422;2023-11-21T00:33:19;3.53;;;1.13;;
1358;SDS011;673;48.098;14.422;2023-11-21T00:35:46;5.40;;;1.30;;
1358;SDS011;673;48.098;14.422;2023-11-21T00:38:14;2.10;;;1.83;;
1358;SDS011;673;48.098;14.422;2023-11-21T00:40:45;3.00;;;1.70;;
1358;SDS011;673;48.098;14.422;2023-11-21T00:43:12;3.60;;;1.43;;
1358;SDS011;673;48.098;14.422;2023-11-21T00:45:40;2.93;;;1.57;;
1358;SDS011;673;48.098;14.422;2023-11-21T00:48:07;4.67;;;2.07;;
1358;SDS011;673;48.098;14.422;2023-11-21T00:50:34;7.03;;;2.30;;
1358;SDS011;673;48.098;14.422;2023-11-21T00:53:01;2.30;;;1.37;;
1358;SDS011;673;48.098;14.422;2023-11-21T00:55:29;4.43;;;1.93;;
1358;SDS011;673;48.098;14.422;2023-11-21T00:57:56;1.33;;;1.10;;
1358;SDS011;673;48.098;14.422;2023-11-21T01:00:23;1.77;;;1.33;;
1358;SDS011;673;48.098;14.422;2023-11-21T01:02:50;6.43;;;1.57;;
1358;SDS011;673;48.098;14.422;2023-11-21T01:05:18;2.30;;;1.50;;
1358;SDS011;673;48.098;14.422;2023-11-21T01:07:45;2.37;;;1.57;;
1358;SDS011;673;48.098;14.422;2023-11-21T01:10:12;5.43;;;1.10;;
1358;SDS011;673;48.098;14.422;2023-11-21T01:12:41;4.50;;;1.67;;
1358;SDS011;673;48.098;14.422;2023-11-21T01:15:08;2.40;;;1.80;;
1358;SDS011;673;48.098;14.422;2023-11-21T01:17:37;2.17;;;1.30;;
1358;SDS011;673;48.098;14.422;2023-11-21T01:20:05;2.87;;;1.63;;
1358;SDS011;673;48.098;14.422;2023-11-21T01:22:37;2.80;;;1.10;;
1358;SDS011;673;48.098;14.422;2023-11-21T01:25:04;4.10;;;1.87;;
1358;SDS011;673;48.098;14.422;2023-11-21T01:27:32;3.97;;;2.40;;
1358;SDS011;673;48.098;14.422;2023-11-21T01:30:01;2.30;;;2.00;;
1358;SDS011;673;48.098;14.422;2023-11-21T01:32:29;1.53;;;0.90;;
1358;SDS011;673;48.098;14.422;2023-11-21T01:34:56;2.10;;;1.47;;
1358;SDS011;673;48.098;14.422;2023-11-21T01:37:24;6.00;;;1.30;;
1358;SDS011;673;48.098;14.422;2023-11-21T01:39:52;3.37;;;2.50;;
1358;SDS011;673;48.098;14.422;2023-11-21T01:42:20;2.53;;;1.30;;
1358;SDS011;673;48.098;14.422;2023-11-21T01:44:47;3.67;;;1.03;;
1358;SDS011;673;48.098;14.422;2023-11-21T01:47:15;8.23;;;2.30;;
1358;SDS011;673;48.098;14.422;2023-11-21T01:49:43;2.83;;;1.60;;
1358;SDS011;673;48.098;14.422;2023-11-21T01:52:11;4.10;;;2.33;;
1358;SDS011;673;48.098;14.422;2023-11-21T01:54:38;2.73;;;1.30;;
1358;SDS011;673;48.098;14.422;2023-11-21T01:57:07;2.43;;;1.80;;
1358;SDS011;673;48.098;14.422;2023-11-21T01:59:35;4.47;;;1.70;;
1358;SDS011;673;48.098;14.422;2023-11-21T02:02:03;4.47;;;1.83;;
1358;SDS011;673;48.098;14.422;2023-11-21T02:04:32;4.03;;;1.60;;
1358;SDS011;673;48.098;14.422;2023-11-21T02:07:00;4.37;;;1.33;;
1358;SDS011;673;48.098;14.422;2023-11-21T02:09:29;9.23;;;2.53;;
1358;SDS011;673;48.098;14.422;2023-11-21T02:11:56;3.27;;;1.80;;
1358;SDS011;673;48.098;14.422;2023-11-21T02:14:24;6.50;;;1.63;;
1358;SDS011;673;48.098;14.422;2023-11-21T02:16:51;5.30;;;2.07;;
1358;SDS011;673;48.098;14.422;2023-11-21T02:19:19;3.20;;;1.70;;
1358;SDS011;673;48.098;14.422;2023-11-21T02:21:50;4.10;;;1.53;;
1358;SDS011;673;48.098;14.422;2023-11-21T02:24:19;3.97;;;1.53;;
1358;SDS011;673;48.098;14.422;2023-11-21T02:26:47;3.50;;;1.30;;
1358;SDS011;673;48.098;14.422;2023-11-21T02:29:16;5.50;;;1.40;;
1358;SDS011;673;48.098;14.422;2023-11-21T02:31:47;2.80;;;1.67;;
1358;SDS011;673;48.098;14.422;2023-11-21T02:34:14;3.47;;;2.47;;
1358;SDS011;673;48.098;14.422;2023-11-21T02:36:41;3.73;;;2.13;;
1358;SDS011;673;48.098;14.422;2023-11-21T02:39:08;3.67;;;2.53;;
1358;SDS011;673;48.098;14.422;2023-11-21T02:41:37;2.33;;;1.67;;
1358;SDS011;673;48.098;14.422;2023-11-21T02:44:05;4.90;;;1.60;;
1358;SDS011;673;48.098;14.422;2023-11-21T02:46:32;3.20;;;1.43;;
1358;SDS011;673;48.098;14.422;2023-11-21T02:49:00;3.03;;;2.20;;
1358;SDS011;673;48.098;14.422;2023-11-21T02:51:27;3.83;;;1.93;;
1358;SDS011;673;48.098;14.422;2023-11-21T02:53:54;5.73;;;2.43;;
1358;SDS011;673;48.098;14.422;2023-11-21T02:56:24;7.13;;;2.50;;
1358;SDS011;673;48.098;14.422;2023-11-21T02:58:55;3.00;;;1.87;;
1358;SDS011;673;48.098;14.422;2023-11-21T03:01:22;5.00;;;1.90;;
1358;SDS011;673;48.098;14.422;2023-11-21T03:03:50;2.97;;;1.30;;
1358;SDS011;673;48.098;14.422;2023-11-21T03:06:17;2.43;;;2.07;;
1358;SDS011;673;48.098;14.422;2023-11-21T03:08:44;4.27;;;1.93;;
1358;SDS011;673;48.098;14.422;2023-11-21T03:11:12;4.63;;;1.87;;
1358;SDS011;673;48.098;14.422;2023-11-21T03:13:39;6.80;;;1.83;;
1358;SDS011;673;48.098;14.422;2023-11-21T03:16:09;1.87;;;1.77;;
1358;SDS011;673;48.098;14.422;2023-11-21T03:18:36;4.20;;;2.57;;
1358;SDS011;673;48.098;14.422;2023-11-21T03:21:04;2.50;;;1.20;;
1358;SDS011;673;48.098;14.422;2023-11-21T03:23:34;3.57;;;1.53;;
1358;SDS011;673;48.098;14.422;2023-11-21T03:26:02;5.43;;;2.47;;
1358;SDS011;673;48.098;14.422;2023-11-21T03:28:29;15.20;;;5.30;;
1358;SDS011;673;48.098;14.422;2023-11-21T03:30:56;2.37;;;1.20;;
1358;SDS011;673;48.098;14.422;2023-11-21T03:33:24;4.07;;;2.07;;
1358;SDS011;673;48.098;14.422;2023-11-21T03:35:51;3.30;;;0.63;;
1358;SDS011;673;48.098;14.422;2023-11-21T03:38:19;4.30;;;1.47;;
1358;SDS011;673;48.098;14.422;2023-11-21T03:40:46;1.37;;;0.97;;
1358;SDS011;673;48.098;14.422;2023-11-21T03:43:13;2.30;;;1.00;;
1358;SDS011;673;48.098;14.422;2023-11-21T03:45:40;3.70;;;1.30;;
1358;SDS011;673;48.098;14.422;2023-11-21T03:48:07;3.30;;;1.50;;
1358;SDS011;673;48.098;14.422;2023-11-21T03:50:35;2.50;;;0.67;;
1358;SDS011;673;48.098;14.422;2023-11-21T03:53:02;2.10;;;0.90;;
1358;SDS011;673;48.098;14.422;2023-11-21T03:55:30;3.63;;;1.23;;
1358;SDS011;673;48.098;14.422;2023-11-21T03:57:57;3.43;;;0.97;;
1358;SDS011;673;48.098;14.422;2023-11-21T04:00:24;2.50;;;0.90;;
1358;SDS011;673;48.098;14.422;2023-11-21T04:02:52;3.60;;;0.80;;
1358;SDS011;673;48.098;14.422;2023-11-21T04:05:19;7.07;;;1.50;;
1358;SDS011;673;48.098;14.422;2023-11-21T04:07:49;2.27;;;0.83;;
1358;SDS011;673;48.098;14.422;2023-11-21T04:10:17;1.60;;;1.20;;
1358;SDS011;673;48.098;14.422;2023-11-21T04:12:44;1.73;;;0.80;;
1358;SDS011;673;48.098;14.422;2023-11-21T04:15:12;2.67;;;1.00;;
1358;SDS011;673;48.098;14.422;2023-11-21T04:17:39;1.50;;;0.97;;
1358;SDS011;673;48.098;14.422;2023-11-21T04:20:07;4.30;;;1.47;;
1358;SDS011;673;48.098;14.422;2023-11-21T04:22:36;5.70;;;3.10;;
1358;SDS011;673;48.098;14.422;2023-11-21T04:25:08;1.80;;;1.00;;
1358;SDS011;673;48.098;14.422;2023-11-21T04:27:36;3.43;;;2.03;;
1358;SDS011;673;48.098;14.422;2023-11-21T04:30:03;2.00;;;0.80;;
1358;SDS011;673;48.098;14.422;2023-11-21T04:32:32;2.20;;;1.57;;
1358;SDS011;673;48.098;14.422;2023-11-21T04:34:59;4.10;;;3.07;;
1358;SDS011;673;48.098;14.422;2023-11-21T04:37:26;3.13;;;1.23;;
1358;SDS011;673;48.098;14.422;2023-11-21T04:39:53;2.80;;;0.80;;
1358;SDS011;673;48.098;14.422;2023-11-21T04:42:21;10.90;;;1.27;;
1358;SDS011;673;48.098;14.422;2023-11-21T04:44:48;1.00;;;0.80;;
1358;SDS011;673;48.098;14.422;2023-11-21T04:47:17;2.13;;;0.77;;
1358;SDS011;673;48.098;14.422;2023-11-21T04:49:45;1.70;;;0.87;;
1358;SDS011;673;48.098;14.422;2023-11-21T04:52:13;1.40;;;0.77;;
1358;SDS011;673;48.098;14.422;2023-11-21T04:54:40;3.23;;;1.23;;
1358;SDS011;673;48.098;14.422;2023-11-21T04:57:08;2.30;;;0.90;;
1358;SDS011;673;48.098;14.422;2023-11-21T04:59:37;1.53;;;0.77;;
1358;SDS011;673;48.098;14.422;2023-11-21T05:02:04;0.80;;;0.60;;
1358;SDS011;673;48.098;14.422;2023-11-21T05:04:31;2.10;;;1.10;;
1358;SDS011;673;48.098;14.422;2023-11-21T05:06:58;6.13;;;2.10;;
1358;SDS011;673;48.098;14.422;2023-11-21T05:09:26;5.10;;;3.17;;
1358;SDS011;673;48.098;14.422;2023-11-21T05:11:57;4.83;;;3.20;;
1358;SDS011;673;48.098;14.422;2023-11-21T05:14:25;6.80;;;4.57;;
1358;SDS011;673;48.098;14.422;2023-11-21T05:16:53;11.03;;;5.67;;
1358;SDS011;673;48.098;14.422;2023-11-21T05:19:20;4.50;;;4.10;;
1358;SDS011;673;48.098;14.422;2023-11-21T05:21:47;2.80;;;2.13;;
1358;SDS011;673;48.098;14.422;2023-11-21T05:24:15;1.63;;;1.30;;
1358;SDS011;673;48.098;14.422;2023-11-21T05:26:42;4.63;;;1.60;;
1358;SDS011;673;48.098;14.422;2023-11-21T05:29:08;4.13;;;1.00;;
1358;SDS011;673;48.098;14.422;2023-11-21T05:31:36;7.53;;;0.80;;
1358;SDS011;673;48.098;14.422;2023-11-21T05:34:04;6.00;;;3.07;;
1358;SDS011;673;48.098;14.422;2023-11-21T05:36:31;5.87;;;2.07;;
1358;SDS011;673;48.098;14.422;2023-11-21T05:38:58;1.37;;;0.80;;
1358;SDS011;673;48.098;14.422;2023-11-21T05:41:25;1.73;;;1.30;;
1358;SDS011;673;48.098;14.422;2023-11-21T05:43:52;1.80;;;1.40;;
1358;SDS011;673;48.098;14.422;2023-11-21T05:46:19;3.27;;;1.50;;
1358;SDS011;673;48.098;14.422;2023-11-21T05:48:46;3.43;;;1.20;;
1358;SDS011;673;48.098;14.422;2023-11-21T05:51:15;0.97;;;0.87;;
1358;SDS011;673;48.098;14.422;2023-11-21T05:53:42;3.50;;;0.90;;
1358;SDS011;673;48.098;14.422;2023-11-21T05:56:09;1.33;;;0.90;;
1358;SDS011;673;48.098;14.422;2023-11-21T05:58:36;1.87;;;0.70;;
1358;SDS011;673;48.098;14.422;2023-11-21T06:01:05;1.13;;;0.80;;
1358;SDS011;673;48.098;14.422;2023-11-21T06:03:34;1.27;;;0.70;;
1358;SDS011;673;48.098;14.422;2023-11-21T06:06:01;2.40;;;0.67;;
1358;SDS011;673;48.098;14.422;2023-11-21T06:08:30;2.87;;;0.80;;
1358;SDS011;673;48.098;14.422;2023-11-21T06:10:57;2.70;;;0.63;;
1358;SDS011;673;48.098;14.422;2023-11-21T06:13:24;1.40;;;0.73;;
1358;SDS011;673;48.098;14.422;2023-11-21T06:15:51;2.60;;;1.00;;
1358;SDS011;673;48.098;14.422;2023-11-21T06:18:18;1.80;;;0.80;;
1358;SDS011;673;48.098;14.422;2023-11-21T06:20:45;7.43;;;1.40;;
1358;SDS011;673;48.098;14.422;2023-11-21T06:23:12;1.40;;;0.80;;
1358;SDS011;673;48.098;14.422;2023-11-21T06:25:42;6.60;;;1.50;;
1358;SDS011;673;48.098;14.422;2023-11-21T06:28:09;5.13;;;1.70;;
1358;SDS011;673;48.098;14.422;2023-11-21T06:30:36;3.87;;;1.07;;
1358;SDS011;673;48.098;14.422;2023-11-21T06:33:04;1.20;;;0.90;;
1358;SDS011;673;48.098;14.422;2023-11-21T06:35:31;2.43;;;1.00;;
1358;SDS011;673;48.098;14.422;2023-11-21T06:38:00;2.60;;;1.13;;
1358;SDS011;673;48.098;14.422;2023-11-21T06:40:27;3.60;;;1.40;;
1358;SDS011;673;48.098;14.422;2023-11-21T06:42:56;3.97;;;1.30;;
1358;SDS011;673;48.098;14.422;2023-11-21T06:45:23;4.83;;;1.30;;
1358;SDS011;673;48.098;14.422;2023-11-21T06:47:50;1.40;;;1.30;;
1358;SDS011;673;48.098;14.422;2023-11-21T06:50:18;1.27;;;0.80;;
1358;SDS011;673;48.098;14.422;2023-11-21T06:52:45;4.30;;;0.80;;
1358;SDS011;673;48.098;14.422;2023-11-21T06:55:12;4.50;;;1.10;;
1358;SDS011;673;48.098;14.422;2023-11-21T06:57:39;3.20;;;0.93;;
1358;SDS011;673;48.098;14.422;2023-11-21T07:00:08;1.70;;;0.70;;
1358;SDS011;673;48.098;14.422;2023-11-21T07:02:36;4.20;;;0.63;;
1358;SDS011;673;48.098;14.422;2023-11-21T07:05:04;0.63;;;0.60;;
1358;SDS011;673;48.098;14.422;2023-11-21T07:07:31;3.13;;;1.17;;
1358;SDS011;673;48.098;14.422;2023-11-21T07:10:00;4.00;;;0.80;;
1358;SDS011;673;48.098;14.422;2023-11-21T07:12:28;3.60;;;0.83;;
1358;SDS011;673;48.098;14.422;2023-11-21T07:14:56;1.87;;;1.00;;
1358;SDS011;673;48.098;14.422;2023-11-21T07:17:24;9.53;;;1.23;;
1358;SDS011;673;48.098;14.422;2023-11-21T07:19:51;1.30;;;0.70;;
1358;SDS011;673;48.098;14.422;2023-11-21T07:22:18;1.00;;;0.80;;
1358;SDS011;673;48.098;14.422;2023-11-21T07:24:47;8.10;;;0.80;;
1358;SDS011;673;48.098;14.422;2023-11-21T07:27:16;1.33;;;0.50;;
1358;SDS011;673;48.098;14.422;2023-11-21T07:29:43;1.67;;;0.93;;
1358;SDS011;673;48.098;14.422;2023-11-21T07:32:10;1.00;;;0.50;;
1358;SDS011;673;48.098;14.422;2023-11-21T07:34:39;1.60;;;0.60;;
1358;SDS011;673;48.098;14.422;2023-11-21T07:37:07;1.07;;;0.50;;
1358;SDS011;673;48.098;14.422;2023-11-21T07:39:35;2.23;;;0.70;;
1358;SDS011;673;48.098;14.422;2023-11-21T07:42:02;1.37;;;0.50;;
1358;SDS011;673;48.098;14.422;2023-11-21T07:44:29;2.33;;;0.83;;
1358;SDS011;673;48.098;14.422;2023-11-21T07:46:56;2.67;;;0.70;;
1358;SDS011;673;48.098;14.422;2023-11-21T07:49:23;0.80;;;0.60;;
1358;SDS011;673;48.098;14.422;2023-11-21T07:51:53;4.60;;;1.47;;
1358;SDS011;673;48.098;14.422;2023-11-21T07:54:20;1.40;;;0.80;;
1358;SDS011;673;48.098;14.422;2023-11-21T07:56:47;3.63;;;0.70;;
1358;SDS011;673;48.098;14.422;2023-11-21T07:59:14;3.23;;;2.00;;
1358;SDS011;673;48.098;14.422;2023-11-21T08:01:42;4.03;;;1.30;;
1358;SDS011;673;48.098;14.422;2023-11-21T08:04:10;1.87;;;1.17;;
1358;SDS011;673;48.098;14.422;2023-11-21T08:06:38;3.87;;;1.33;;
1358;SDS011;673;48.098;14.422;2023-11-21T08:09:08;2.77;;;1.50;;
1358;SDS011;673;48.098;14.422;2023-11-21T08:11:37;1.77;;;0.83;;
1358;SDS011;673;48.098;14.422;2023-11-21T08:14:04;1.60;;;0.70;;
1358;SDS011;673;48.098;14.422;2023-11-21T08:16:31;1.60;;;1.43;;
1358;SDS011;673;48.098;14.422;2023-11-21T08:18:58;2.80;;;1.50;;
1358;SDS011;673;48.098;14.422;2023-11-21T08:21:26;2.07;;;1.00;;
1358;SDS011;673;48.098;14.422;2023-11-21T08:23:54;2.37;;;1.60;;
1358;SDS011;673;48.098;14.422;2023-11-21T08:26:23;3.00;;;1.97;;
1358;SDS011;673;48.098;14.422;2023-11-21T08:28:50;2.43;;;1.20;;
1358;SDS011;673;48.098;14.422;2023-11-21T08:31:23;1.80;;;1.30;;
1358;SDS011;673;48.098;14.422;2023-11-21T08:33:51;3.20;;;1.40;;
1358;SDS011;673;48.098;14.422;2023-11-21T08:36:20;3.77;;;1.30;;
1358;SDS011;673;48.098;14.422;2023-11-21T08:38:49;2.70;;;1.10;;
1358;SDS011;673;48.098;14.422;2023-11-21T08:41:17;1.80;;;1.40;;
1358;SDS011;673;48.098;14.422;2023-11-21T08:43:47;4.77;;;1.07;;
1358;SDS011;673;48.098;14.422;2023-11-21T08:46:15;3.47;;;1.00;;
1358;SDS011;673;48.098;14.422;2023-11-21T08:48:43;1.90;;;0.80;;
1358;SDS011;673;48.098;14.422;2023-11-21T08:51:10;1.43;;;1.10;;
1358;SDS011;673;48.098;14.422;2023-11-21T08:53:39;2.33;;;1.17;;
1358;SDS011;673;48.098;14.422;2023-11-21T08:56:06;3.17;;;0.90;;
1358;SDS011;673;48.098;14.422;2023-11-21T08:58:35;0.90;;;0.60;;
1358;SDS011;673;48.098;14.422;2023-11-21T09:01:04;2.47;;;0.77;;
1358;SDS011;673;48.098;14.422;2023-11-21T09:03:32;2.50;;;1.03;;
1358;SDS011;673;48.098;14.422;2023-11-21T09:05:59;1.63;;;0.67;;
1358;SDS011;673;48.098;14.422;2023-11-21T09:08:27;2.40;;;0.60;;
1358;SDS011;673;48.098;14.422;2023-11-21T09:10:54;5.00;;;0.93;;
1358;SDS011;673;48.098;14.422;2023-11-21T09:13:22;4.40;;;1.37;;
1358;SDS011;673;48.098;14.422;2023-11-21T09:15:50;2.17;;;1.00;;
1358;SDS011;673;48.098;14.422;2023-11-21T09:18:18;3.23;;;0.87;;
1358;SDS011;673;48.098;14.422;2023-11-21T09:20:45;3.57;;;1.00;;
1358;SDS011;673;48.098;14.422;2023-11-21T09:23:12;2.20;;;0.70;;
1358;SDS011;673;48.098;14.422;2023-11-21T09:25:39;1.30;;;0.60;;
1358;SDS011;673;48.098;14.422;2023-11-21T09:28:06;13.00;;;1.43;;
1358;SDS011;673;48.098;14.422;2023-11-21T09:30:33;6.20;;;2.67;;
1358;SDS011;673;48.098;14.422;2023-11-21T09:33:01;4.37;;;3.10;;
1358;SDS011;673;48.098;14.422;2023-11-21T09:35:31;4.60;;;3.47;;
1358;SDS011;673;48.098;14.422;2023-11-21T09:37:58;3.90;;;2.90;;
1358;SDS011;673;48.098;14.422;2023-11-21T09:40:26;3.23;;;3.03;;
1358;SDS011;673;48.098;14.422;2023-11-21T09:42:57;3.60;;;3.30;;
1358;SDS011;673;48.098;14.422;2023-11-21T09:45:25;6.10;;;3.40;;
1358;SDS011;673;48.098;14.422;2023-11-21T09:47:53;3.67;;;3.37;;
1358;SDS011;673;48.098;14.422;2023-11-21T09:50:21;4.43;;;3.83;;
1358;SDS011;673;48.098;14.422;2023-11-21T09:52:53;9.73;;;3.53;;
1358;SDS011;673;48.098;14.422;2023-11-21T09:55:26;3.77;;;3.47;;
1358;SDS011;673;48.098;14.422;2023-11-21T09:57:55;7.37;;;3.70;;
1358;SDS011;673;48.098;14.422;2023-11-21T10:00:23;3.80;;;2.83;;
1358;SDS011;673;48.098;14.422;2023-11-21T10:02:50;6.00;;;2.47;;
1358;SDS011;673;48.098;14.422;2023-11-21T10:05:19;4.20;;;2.27;;
1358;SDS011;673;48.098;14.422;2023-11-21T10:07:47;2.73;;;2.43;;
1358;SDS011;673;48.098;14.422;2023-11-21T10:10:18;6.00;;;3.03;;
1358;SDS011;673;48.098;14.422;2023-11-21T10:12:48;2.00;;;1.57;;
1358;SDS011;673;48.098;14.422;2023-11-21T10:15:18;4.87;;;2.50;;
1358;SDS011;673;48.098;14.422;2023-11-21T10:17:48;3.40;;;2.90;;
1358;SDS011;673;48.098;14.422;2023-11-21T10:20:18;4.73;;;2.30;;
1358;SDS011;673;48.098;14.422;2023-11-21T10:22:46;2.23;;;2.00;;
1358;SDS011;673;48.098;14.422;2023-11-21T10:25:14;3.40;;;2.70;;
1358;SDS011;673;48.098;14.422;2023-11-21T10:27:43;4.93;;;2.20;;
1358;SDS011;673;48.098;14.422;2023-11-21T10:30:15;4.50;;;2.20;;
1358;SDS011;673;48.098;14.422;2023-11-21T10:32:43;6.07;;;2.57;;
1358;SDS011;673;48.098;14.422;2023-11-21T10:35:10;4.47;;;4.07;;
1358;SDS011;673;48.098;14.422;2023-11-21T10:37:37;4.50;;;1.57;;
1358;SDS011;673;48.098;14.422;2023-11-21T10:40:06;4.30;;;2.80;;
1358;SDS011;673;48.098;14.422;2023-11-21T10:42:35;4.70;;;2.60;;
1358;SDS011;673;48.098;14.422;2023-11-21T10:45:03;3.80;;;3.00;;
1358;SDS011;673;48.098;14.422;2023-11-21T10:47:35;3.10;;;2.53;;
1358;SDS011;673;48.098;14.422;2023-11-21T10:50:02;3.17;;;2.53;;
1358;SDS011;673;48.098;14.422;2023-11-21T10:52:31;6.97;;;2.97;;
1358;SDS011;673;48.098;14.422;2023-11-21T10:55:01;1.77;;;1.67;;
1358;SDS011;673;48.098;14.422;2023-11-21T10:57:28;4.80;;;2.70;;
1358;SDS011;673;48.098;14.422;2023-11-21T10:59:58;2.70;;;2.50;;
1358;SDS011;673;48.098;14.422;2023-11-21T11:02:25;5.47;;;2.10;;
1358;SDS011;673;48.098;14.422;2023-11-21T11:04:57;3.63;;;2.70;;
1358;SDS011;673;48.098;14.422;2023-11-21T11:07:26;5.07;;;3.40;;
1358;SDS011;673;48.098;14.422;2023-11-21T11:09:55;3.10;;;2.80;;
1358;SDS011;673;48.098;14.422;2023-11-21T11:12:24;5.50;;;4.97;;
1358;SDS011;673;48.098;14.422;2023-11-21T11:14:51;2.23;;;2.00;;
1358;SDS011;673;48.098;14.422;2023-11-21T11:17:20;8.10;;;3.40;;
1358;SDS011;673;48.098;14.422;2023-11-21T11:19:47;1.00;;;0.90;;
1358;SDS011;673;48.098;14.422;2023-11-21T11:22:18;2.80;;;1.13;;
1358;SDS011;673;48.098;14.422;2023-11-21T11:25:02;2.60;;;0.60;;
1358;SDS011;673;48.098;14.422;2023-11-21T11:27:40;2.13;;;0.90;;
1358;SDS011;673;48.098;14.422;2023-11-21T11:30:16;1.57;;;0.50;;
1358;SDS011;673;48.098;14.422;2023-11-21T11:32:58;0.90;;;0.50;;
1358;SDS011;673;48.098;14.422;2023-11-21T11:35:33;1.03;;;0.80;;
1358;SDS011;673;48.098;14.422;2023-11-21T11:38:08;1.10;;;0.70;;
1358;SDS011;673;48.098;14.422;2023-11-21T11:40:39;2.67;;;0.60;;
1358;SDS011;673;48.098;14.422;2023-11-21T11:43:07;0.90;;;0.70;;
1358;SDS011;673;48.098;14.422;2023-11-21T11:45:34;0.60;;;0.50;;
1358;SDS011;673;48.098;14.422;2023-11-21T11:48:07;0.80;;;0.40;;
1358;SDS011;673;48.098;14.422;2023-11-21T11:50:41;1.60;;;0.40;;
1358;SDS011;673;48.098;14.422;2023-11-21T11:53:28;0.73;;;0.40;;
1358;SDS011;673;48.098;14.422;2023-11-21T11:58:50;0.70;;;0.60;;
1358;SDS011;673;48.098;14.422;2023-11-21T12:01:18;2.40;;;0.90;;
1358;SDS011;673;48.098;14.422;2023-11-21T12:03:50;0.80;;;0.60;;
1358;SDS011;673;48.098;14.422;2023-11-21T12:06:56;2.80;;;0.80;;
1358;SDS011;673;48.098;14.422;2023-11-21T12:09:25;0.80;;;0.73;;
1358;SDS011;673;48.098;14.422;2023-11-21T12:11:52;0.60;;;0.50;;
1358;SDS011;673;48.098;14.422;2023-11-21T12:14:21;1.40;;;0.50;;
1358;SDS011;673;48.098;14.422;2023-11-21T12:16:49;3.93;;;0.40;;
1358;SDS011;673;48.098;14.422;2023-11-21T12:19:18;2.30;;;0.70;;
1358;SDS011;673;48.098;14.422;2023-11-21T12:21:47;1.60;;;0.50;;
1358;SDS011;673;48.098;14.422;2023-11-21T12:24:15;0.60;;;0.40;;
1358;SDS011;673;48.098;14.422;2023-11-21T12:26:42;1.87;;;0.40;;
1358;SDS011;673;48.098;14.422;2023-11-21T12:29:10;0.73;;;0.50;;
1358;SDS011;673;48.098;14.422;2023-11-21T12:31:37;1.73;;;0.53;;
1358;SDS011;673;48.098;14.422;2023-11-21T12:34:05;1.63;;;0.57;;
1358;SDS011;673;48.098;14.422;2023-11-21T12:36:33;0.60;;;0.60;;
1358;SDS011;673;48.098;14.422;2023-11-21T12:39:01;1.20;;;0.60;;
1358;SDS011;673;48.098;14.422;2023-11-21T12:41:28;2.00;;;0.70;;
1358;SDS011;673;48.098;14.422;2023-11-21T12:43:57;3.03;;;1.23;;
1358;SDS011;673;48.098;14.422;2023-11-21T12:46:24;1.17;;;1.07;;
1358;SDS011;673;48.098;14.422;2023-11-21T12:48:54;1.83;;;0.80;;
1358;SDS011;673;48.098;14.422;2023-11-21T12:51:21;1.90;;;1.20;;
1358;SDS011;673;48.098;14.422;2023-11-21T12:53:50;1.20;;;1.10;;
1358;SDS011;673;48.098;14.422;2023-11-21T12:56:17;1.30;;;0.80;;
1358;SDS011;673;48.098;14.422;2023-11-21T12:58:48;1.10;;;0.97;;
1358;SDS011;673;48.098;14.422;2023-11-21T13:01:15;1.07;;;0.60;;
1358;SDS011;673;48.098;14.422;2023-11-21T13:03:46;2.50;;;0.90;;
1358;SDS011;673;48.098;14.422;2023-11-21T13:06:16;1.00;;;0.90;;
1358;SDS011;673;48.098;14.422;2023-11-21T13:08:44;1.03;;;0.80;;
1358;SDS011;673;48.098;14.422;2023-11-21T13:11:13;1.77;;;0.90;;
1358;SDS011;673;48.098;14.422;2023-11-21T13:13:41;6.03;;;0.93;;
1358;SDS011;673;48.098;14.422;2023-11-21T13:16:09;1.30;;;0.97;;
1358;SDS011;673;48.098;14.422;2023-11-21T13:18:36;1.10;;;1.00;;
1358;SDS011;673;48.098;14.422;2023-11-21T13:21:05;1.40;;;1.30;;
1358;SDS011;673;48.098;14.422;2023-11-21T13:23:36;2.00;;;1.23;;
1358;SDS011;673;48.098;14.422;2023-11-21T13:26:04;3.53;;;1.20;;
1358;SDS011;673;48.098;14.422;2023-11-21T13:28:33;1.33;;;0.80;;
1358;SDS011;673;48.098;14.422;2023-11-21T13:31:00;0.90;;;0.80;;
1358;SDS011;673;48.098;14.422;2023-11-21T13:33:34;2.50;;;1.20;;
1358;SDS011;673;48.098;14.422;2023-11-21T13:36:03;3.17;;;0.90;;
1358;SDS011;673;48.098;14.422;2023-11-21T13:38:33;0.60;;;0.53;;
1358;SDS011;673;48.098;14.422;2023-11-21T13:41:01;1.87;;;0.90;;
1358;SDS011;673;48.098;14.422;2023-11-21T13:43:33;2.40;;;0.90;;
1358;SDS011;673;48.098;14.422;2023-11-21T13:46:02;1.20;;;0.70;;
1358;SDS011;673;48.098;14.422;2023-11-21T13:48:38;1.53;;;1.37;;
1358;SDS011;673;48.098;14.422;2023-11-21T13:51:08;1.10;;;1.00;;
1358;SDS011;673;48.098;14.422;2023-11-21T13:53:42;0.73;;;0.70;;
1358;SDS011;673;48.098;14.422;2023-11-21T13:56:09;4.03;;;1.30;;
1358;SDS011;673;48.098;14.422;2023-11-21T13:58:39;4.20;;;0.90;;
1358;SDS011;673;48.098;14.422;2023-11-21T14:01:11;1.13;;;1.03;;
1358;SDS011;673;48.098;14.422;2023-11-21T14:03:57;1.83;;;1.07;;
1358;SDS011;673;48.098;14.422;2023-11-21T14:06:33;2.63;;;0.90;;
1358;SDS011;673;48.098;14.422;2023-11-21T14:09:10;0.80;;;0.80;;
1358;SDS011;673;48.098;14.422;2023-11-21T14:11:39;1.17;;;0.80;;
1358;SDS011;673;48.098;14.422;2023-11-21T14:14:07;1.13;;;1.00;;
1358;SDS011;673;48.098;14.422;2023-11-21T14:16:34;0.70;;;0.70;;
1358;SDS011;673;48.098;14.422;2023-11-21T14:19:02;1.67;;;0.70;;
1358;SDS011;673;48.098;14.422;2023-11-21T14:21:40;1.87;;;0.83;;
1358;SDS011;673;48.098;14.422;2023-11-21T14:24:08;1.00;;;0.80;;
1358;SDS011;673;48.098;14.422;2023-11-21T14:26:37;5.20;;;1.70;;
1358;SDS011;673;48.098;14.422;2023-11-21T14:29:05;1.03;;;0.93;;
1358;SDS011;673;48.098;14.422;2023-11-21T14:31:36;1.17;;;0.80;;
1358;SDS011;673;48.098;14.422;2023-11-21T14:34:03;1.40;;;1.20;;
1358;SDS011;673;48.098;14.422;2023-11-21T14:36:31;1.50;;;1.27;;
1358;SDS011;673;48.098;14.422;2023-11-21T14:38:59;3.63;;;0.80;;
1358;SDS011;673;48.098;14.422;2023-11-21T14:41:26;1.87;;;1.00;;
1358;SDS011;673;48.098;14.422;2023-11-21T14:43:54;1.80;;;1.40;;
1358;SDS011;673;48.098;14.422;2023-11-21T14:46:24;9.20;;;5.30;;
1358;SDS011;673;48.098;14.422;2023-11-21T14:48:50;10.57;;;7.70;;
1358;SDS011;673;48.098;14.422;2023-11-21T14:51:25;7.20;;;6.50;;
1358;SDS011;673;48.098;14.422;2023-11-21T14:53:55;8.10;;;6.83;;
1358;SDS011;673;48.098;14.422;2023-11-21T14:56:25;4.50;;;4.10;;
1358;SDS011;673;48.098;14.422;2023-11-21T14:58:56;3.03;;;1.50;;
1358;SDS011;673;48.098;14.422;2023-11-21T15:01:24;2.17;;;1.90;;
1358;SDS011;673;48.098;14.422;2023-11-21T15:04:08;3.10;;;2.20;;
1358;SDS011;673;48.098;14.422;2023-11-21T15:06:40;2.40;;;1.63;;
1358;SDS011;673;48.098;14.422;2023-11-21T15:09:08;1.57;;;1.30;;
1358;SDS011;673;48.098;14.422;2023-11-21T15:12:00;2.87;;;1.30;;
1358;SDS011;673;48.098;14.422;2023-11-21T15:14:37;1.90;;;0.90;;
1358;SDS011;673;48.098;14.422;2023-11-21T15:17:06;2.40;;;1.07;;
1358;SDS011;673;48.098;14.422;2023-11-21T15:19:33;2.73;;;1.13;;
1358;SDS011;673;48.098;14.422;2023-11-21T15:22:00;2.07;;;1.87;;
1358;SDS011;673;48.098;14.422;2023-11-21T15:24:28;2.77;;;1.20;;
1358;SDS011;673;48.098;14.422;2023-11-21T15:26:55;1.30;;;1.20;;